Flight Track Log - Related Links

Times and Time Zones

All times are in EDT time to prevent confusion due to time zone crossing. See the N6345B flight status page for this flight to view local times or setup timezone preferences in your user account.

Time Position Orientation Groundspeed Altitude Reporting Facility
EDT Latitude Longitude Course Direction KTS MPH feet Rate Location/Type
Wed 08:39:47 AM 30.3092 -81.5236 181° South 86 99 800  Level Jacksonville Center
Wed 08:40:48 AM 30.3111 -81.4897 86° East 99 114 1,400 517 Climbing Jacksonville Center
Wed 08:41:43 AM 30.3128 -81.4586 86° East 108 124 1,800 517 Climbing Jacksonville Center
Wed 08:42:44 AM 30.3103 -81.4225 95° East 110 127 2,400 590 Climbing Jacksonville Center
Wed 08:43:45 AM 30.2892 -81.4083 150° Southeast 77 89 3,000 541 Climbing Jacksonville Center
Wed 08:44:46 AM 30.2703 -81.3989 157° South 70 81 3,500 496 Climbing Jacksonville Center
Wed 08:45:46 AM 30.2514 -81.3992 181° South 70 81 4,000 234 Climbing Jacksonville Center
Wed 08:46:54 AM 30.2222 -81.3972 177° South 102 117 4,000  Level Jacksonville Center
Wed 08:48:01 AM 30.1911 -81.4003 185° South 105 121 4,000  Level Jacksonville Center
Wed 08:49:02 AM 30.1575 -81.4008 181° South 102 117 4,000  Level Jacksonville Center
Wed 08:49:56 AM 30.1347 -81.4011 181° South 100 115 4,000  Level Jacksonville Center
Wed 08:50:57 AM 30.1053 -81.4017 181° South 102 117 4,000  Level Jacksonville Center
Wed 08:51:52 AM 30.0783 -81.4019 181° South 102 117 4,000  Level Jacksonville Center
Wed 08:52:54 AM 30.0511 -81.4047 185° South 102 117 4,000  Level Jacksonville Center
Wed 08:54:06 AM 30.0178 -81.4078 185° South 100 115 4,000  Level Jacksonville Center
Wed 08:55:01 AM 29.9928 -81.4106 185° South 94 108 4,000  Level Jacksonville Center
Wed 08:55:56 AM 29.9697 -81.4108 181° South 99 114 4,000  Level Jacksonville Center
Wed 08:56:24 AM 29.9550 -81.4039 158° South 101 116 4,000  Level Jacksonville Center
Wed 08:57:37 AM 29.9217 -81.3925 164° South 106 122 4,000  Level Jacksonville Center
Wed 08:58:25 AM 29.8964 -81.3831 162° South 108 124 4,000  Level Jacksonville Center
Wed 08:59:27 AM 29.8692 -81.3742 164° South 108 124 4,000  Level Jacksonville Center
Wed 09:00:28 AM 29.8397 -81.3625 161° South 109 125 4,000  Level Jacksonville Center
Wed 09:01:22 AM 29.8147 -81.3508 158° South 110 127 4,000  Level Jacksonville Center
Wed 09:02:29 AM 29.7975 -81.3128 118° Southeast 134 154 4,000  Level Jacksonville Center
Wed 09:03:30 AM 29.7742 -81.2847 134° Southeast 120 138 4,000  Level Jacksonville Center
Wed 09:04:25 AM 29.7486 -81.2586 138° Southeast 120 138 4,000  Level Jacksonville Center
Wed 09:05:26 AM 29.7256 -81.2328 136° Southeast 121 139 4,000  Level Jacksonville Center
Wed 09:06:27 AM 29.7000 -81.2069 139° Southeast 129 148 4,000  Level Jacksonville Center
Wed 09:07:28 AM 29.6706 -81.1836 145° Southeast 126 145 4,000  Level Jacksonville Center
Wed 09:08:35 AM 29.6367 -81.1578 146° Southeast 125 144 4,000  Level Jacksonville Center
Wed 09:09:36 AM 29.6094 -81.1344 143° Southeast 125 144 4,000  Level Jacksonville Center
Wed 09:10:37 AM 29.5819 -81.1111 144° Southeast 103 119 4,000 -281 Level Jacksonville Center
Wed 09:11:44 AM 29.5522 -81.0878 146° Southeast 125 144 3,400 -492 Descending Jacksonville Center
Wed 09:12:39 AM 29.5231 -81.0836 173° South 110 127 3,000 -207 Descending Jacksonville Center
Wed 09:13:40 AM 29.4958 -81.0792 172° South 99 114 3,000 -295 Level Jacksonville Center
Wed 09:14:41 AM 29.4772 -81.0939 215° Southwest 92 106 2,400 -590 Descending Jacksonville Center
Wed 09:15:42 AM 29.4650 -81.1203 242° Southwest 103 119 1,800 -639 Descending Jacksonville Center
Wed 09:16:43 AM 29.4614 -81.1561 263° West 115 132 1,100 -595 Descending Jacksonville Center
Wed 09:17:43 AM 29.4617 -81.1847 271° West 81 93 600 -500 Descending Jacksonville Center
Wed 09:19:00 AM 29.4328 -81.1629 147° Southeast  Level FlightAware Approximate
Wed 09:26:00 AM 29.2556 -81.0894 180° South  Level Estimated
Wed 09:27:00 AM 29.2305 -81.0783 159° South  Level FlightAware Approximate
Wed 09:28:00 AM 29.2054 -81.0671 159° South  Level FlightAware Approximate

Login

Don't have an account? Register now (free) for customized features, flight alerts, and more!